sensor_id;sensor_type;location;lat;lon;timestamp;temperature;humidity
10010;DHT22;5044;48.652;9.250;2023-05-14T07:23:05;11.60;99.90
10010;DHT22;5044;48.652;9.250;2023-05-14T07:29:32;11.70;99.90
10010;DHT22;5044;48.652;9.250;2023-05-14T07:33:04;11.90;99.90
10010;DHT22;5044;48.652;9.250;2023-05-14T07:35:50;11.80;99.90
10010;DHT22;5044;48.652;9.250;2023-05-14T12:43:08;22.40;65.90
10010;DHT22;5044;48.652;9.250;2023-05-14T12:55:25;19.70;91.30
10010;DHT22;5044;48.652;9.250;2023-05-14T13:02:06;20.80;90.70
10010;DHT22;5044;48.652;9.250;2023-05-14T13:11:52;20.70;84.50
10010;DHT22;5044;48.652;9.250;2023-05-14T13:14:45;20.50;91.70
10010;DHT22;5044;48.652;9.250;2023-05-14T13:27:49;19.40;91.80
10010;DHT22;5044;48.652;9.250;2023-05-14T13:30:16;20.00;90.30
10010;DHT22;5044;48.652;9.250;2023-05-14T13:32:43;19.30;91.20
10010;DHT22;5044;48.652;9.250;2023-05-14T13:35:10;19.40;86.00
10010;DHT22;5044;48.652;9.250;2023-05-14T13:37:37;19.10;91.30
10010;DHT22;5044;48.652;9.250;2023-05-14T13:40:06;19.20;92.00
10010;DHT22;5044;48.652;9.250;2023-05-14T13:42:35;18.90;91.10
10010;DHT22;5044;48.652;9.250;2023-05-14T13:45:04;19.00;92.20
10010;DHT22;5044;48.652;9.250;2023-05-14T13:47:31;18.70;91.20
10010;DHT22;5044;48.652;9.250;2023-05-14T13:49:58;18.70;93.30
10010;DHT22;5044;48.652;9.250;2023-05-14T13:52:25;18.90;92.10
10010;DHT22;5044;48.652;9.250;2023-05-14T13:54:52;18.70;92.00
10010;DHT22;5044;48.652;9.250;2023-05-14T13:57:19;18.50;90.80
10010;DHT22;5044;48.652;9.250;2023-05-14T13:59:46;18.90;91.10
10010;DHT22;5044;48.652;9.250;2023-05-14T14:02:15;19.30;90.40
10010;DHT22;5044;48.652;9.250;2023-05-14T14:04:42;19.10;89.60
10010;DHT22;5044;48.652;9.250;2023-05-14T14:07:09;18.90;88.60
10010;DHT22;5044;48.652;9.250;2023-05-14T14:09:36;19.30;86.10
10010;DHT22;5044;48.652;9.250;2023-05-14T14:12:03;18.90;79.30
10010;DHT22;5044;48.652;9.250;2023-05-14T14:14:30;19.30;84.10
10010;DHT22;5044;48.652;9.250;2023-05-14T14:16:57;18.80;80.60
10010;DHT22;5044;48.652;9.250;2023-05-14T14:19:25;18.80;89.90
10010;DHT22;5044;48.652;9.250;2023-05-14T14:21:52;18.80;85.30
10010;DHT22;5044;48.652;9.250;2023-05-14T14:24:21;18.40;85.30
10010;DHT22;5044;48.652;9.250;2023-05-14T14:26:49;18.30;90.90
10010;DHT22;5044;48.652;9.250;2023-05-14T14:29:24;18.20;86.80
10010;DHT22;5044;48.652;9.250;2023-05-14T14:31:53;18.30;91.80
10010;DHT22;5044;48.652;9.250;2023-05-14T14:34:21;18.20;85.00
10010;DHT22;5044;48.652;9.250;2023-05-14T14:36:50;18.00;82.20
10010;DHT22;5044;48.652;9.250;2023-05-14T14:39:20;18.80;86.30
10010;DHT22;5044;48.652;9.250;2023-05-14T14:42:13;18.60;77.50
10010;DHT22;5044;48.652;9.250;2023-05-14T14:44:42;18.60;78.60
10010;DHT22;5044;48.652;9.250;2023-05-14T14:47:15;18.60;82.20
10010;DHT22;5044;48.652;9.250;2023-05-14T14:49:49;19.00;86.10
10010;DHT22;5044;48.652;9.250;2023-05-14T14:52:24;19.00;90.80
10010;DHT22;5044;48.652;9.250;2023-05-14T14:55:09;19.10;84.30
